createdAt,value
2024-03-04T00:00:17.180Z,402.00
2024-03-04T00:01:17.464Z,401.00
2024-03-04T00:02:17.407Z,402.00
2024-03-04T00:03:17.400Z,402.00
2024-03-04T00:04:17.535Z,403.00
2024-03-04T00:05:17.519Z,404.00
2024-03-04T00:06:17.636Z,405.00
2024-03-04T00:07:17.717Z,404.00
2024-03-04T00:08:17.806Z,402.00
2024-03-04T00:09:17.815Z,401.00
2024-03-04T00:10:17.904Z,402.00
2024-03-04T00:11:17.965Z,404.00
2024-03-04T00:12:17.988Z,405.00
2024-03-04T00:13:18.128Z,406.00
2024-03-04T00:14:18.115Z,404.00
2024-03-04T00:15:18.214Z,406.00
2024-03-04T00:16:18.286Z,404.00
2024-03-04T00:17:18.323Z,405.00
2024-03-04T00:18:18.432Z,405.00
2024-03-04T00:19:18.518Z,406.00
2024-03-04T00:20:18.527Z,407.00
2024-03-04T00:21:18.591Z,407.00
2024-03-04T00:22:18.738Z,404.00
2024-03-04T00:23:18.745Z,403.00
2024-03-04T00:24:18.801Z,405.00
2024-03-04T00:25:18.902Z,405.00
2024-03-04T00:26:18.953Z,404.00
2024-03-04T00:27:18.999Z,406.00
2024-03-04T00:28:19.137Z,406.00
2024-03-04T00:29:19.174Z,404.00
2024-03-04T00:30:19.213Z,403.00
2024-03-04T00:31:19.344Z,404.00
2024-03-04T00:32:19.344Z,404.00
2024-03-04T00:33:19.454Z,404.00
2024-03-04T00:34:19.543Z,403.00
2024-03-04T00:35:19.537Z,402.00
2024-03-04T00:36:19.622Z,401.00
2024-03-04T00:37:19.691Z,401.00
2024-03-04T00:38:19.762Z,401.00
2024-03-04T00:39:19.840Z,404.00
2024-03-04T00:40:20.044Z,404.00
2024-03-04T00:41:19.999Z,405.00
2024-03-04T00:42:20.039Z,407.00
2024-03-04T00:43:20.184Z,407.00
2024-03-04T00:44:20.203Z,407.00
2024-03-04T00:45:20.258Z,406.00
2024-03-04T00:46:20.407Z,404.00
2024-03-04T00:47:20.390Z,405.00
2024-03-04T00:48:20.563Z,404.00
2024-03-04T00:49:20.603Z,406.00
2024-03-04T00:50:20.630Z,404.00
2024-03-04T00:51:20.680Z,403.00
2024-03-04T00:52:20.802Z,405.00
2024-03-04T00:53:20.824Z,404.00
2024-03-04T00:54:20.910Z,401.00
2024-03-04T00:55:21.006Z,400.00
2024-03-04T00:56:21.104Z,399.00
2024-03-04T00:57:21.109Z,400.00
2024-03-04T00:58:21.276Z,403.00
2024-03-04T00:59:21.254Z,404.00
2024-03-04T01:00:21.319Z,404.00
2024-03-04T01:01:21.441Z,407.00
2024-03-04T01:02:21.516Z,405.00
2024-03-04T01:03:21.488Z,404.00
2024-03-04T01:04:21.591Z,403.00
2024-03-04T01:05:21.621Z,402.00
2024-03-04T01:06:21.714Z,402.00
2024-03-04T01:07:21.768Z,402.00
2024-03-04T01:08:21.834Z,402.00
2024-03-04T01:09:21.902Z,402.00
2024-03-04T01:10:22.005Z,404.00
2024-03-04T01:11:22.086Z,406.00
2024-03-04T01:12:22.099Z,406.00
2024-03-04T01:13:22.192Z,405.00
2024-03-04T01:14:22.268Z,405.00
2024-03-04T01:15:22.304Z,406.00
2024-03-04T01:16:22.405Z,405.00
2024-03-04T01:17:22.497Z,404.00
2024-03-04T01:18:22.582Z,402.00
2024-03-04T01:19:22.633Z,402.00
2024-03-04T01:20:22.651Z,401.00
2024-03-04T01:21:22.724Z,401.00
2024-03-04T01:22:22.864Z,400.00
2024-03-04T01:23:22.870Z,402.00
2024-03-04T01:24:22.944Z,402.00
2024-03-04T01:25:23.041Z,400.00
2024-03-04T01:26:23.075Z,399.00
2024-03-04T01:27:23.152Z,399.00
2024-03-04T01:28:23.292Z,399.00
2024-03-04T01:29:23.269Z,401.00
2024-03-04T01:30:23.384Z,401.00
2024-03-04T01:31:23.435Z,403.00
2024-03-04T01:32:23.494Z,403.00
2024-03-04T01:33:23.533Z,402.00
2024-03-04T01:34:23.660Z,402.00
2024-03-04T01:35:23.625Z,402.00
2024-03-04T01:36:23.664Z,403.00
2024-03-04T01:37:23.800Z,404.00
2024-03-04T01:38:23.809Z,403.00
2024-03-04T01:39:23.870Z,400.00
2024-03-04T01:40:23.963Z,399.00
2024-03-04T01:41:23.985Z,399.00
2024-03-04T01:42:24.054Z,399.00
2024-03-04T01:43:24.141Z,399.00
2024-03-04T01:44:24.165Z,399.00
2024-03-04T01:45:24.240Z,398.00
2024-03-04T01:46:24.332Z,399.00
2024-03-04T01:47:24.367Z,398.00
2024-03-04T01:48:24.350Z,399.00
2024-03-04T01:49:24.424Z,400.00
2024-03-04T01:50:24.468Z,397.00
2024-03-04T01:51:24.506Z,397.00
2024-03-04T01:52:24.580Z,397.00
2024-03-04T01:53:24.610Z,397.00
2024-03-04T01:54:24.679Z,399.00
2024-03-04T01:55:24.789Z,400.00
2024-03-04T01:56:24.740Z,402.00
2024-03-04T01:57:24.791Z,399.00
2024-03-04T01:58:24.858Z,398.00
2024-03-04T01:59:24.892Z,399.00
2024-03-04T02:00:24.950Z,399.00
2024-03-04T02:01:25.058Z,398.00
2024-03-04T02:02:24.986Z,399.00
2024-03-04T02:03:25.050Z,398.00
2024-03-04T02:04:25.146Z,398.00
2024-03-04T02:05:25.118Z,397.00
2024-03-04T02:06:25.164Z,398.00
2024-03-04T02:07:25.187Z,398.00
2024-03-04T02:08:25.217Z,398.00
2024-03-04T02:09:25.279Z,399.00
2024-03-04T02:10:25.325Z,400.00
2024-03-04T02:11:25.357Z,400.00
2024-03-04T02:12:25.343Z,400.00
2024-03-04T02:13:25.413Z,400.00
2024-03-04T02:14:25.438Z,401.00
2024-03-04T02:15:25.432Z,402.00
2024-03-04T02:16:25.508Z,403.00
2024-03-04T02:17:25.507Z,401.00
2024-03-04T02:18:25.475Z,402.00
2024-03-04T02:19:25.622Z,404.00
2024-03-04T02:20:25.562Z,407.00
2024-03-04T02:21:25.564Z,409.00
2024-03-04T02:22:25.636Z,410.00
2024-03-04T02:23:25.599Z,411.00
2024-03-04T02:24:25.668Z,412.00
2024-03-04T02:25:25.715Z,410.00
2024-03-04T02:26:25.633Z,411.00
2024-03-04T02:27:25.624Z,411.00
2024-03-04T02:28:25.787Z,409.00
2024-03-04T02:29:25.751Z,411.00
2024-03-04T02:30:25.668Z,412.00
2024-03-04T02:31:25.716Z,415.00
2024-03-04T02:32:25.703Z,418.00
2024-03-04T02:33:25.706Z,417.00
2024-03-04T02:34:25.752Z,417.00
2024-03-04T02:35:25.732Z,418.00
2024-03-04T02:36:25.763Z,417.00
2024-03-04T02:37:25.868Z,417.00
2024-03-04T02:38:25.755Z,417.00
2024-03-04T02:39:25.809Z,415.00
2024-03-04T02:40:25.803Z,412.00
2024-03-04T02:41:25.768Z,411.00
2024-03-04T02:42:25.737Z,410.00
2024-03-04T02:43:25.836Z,410.00
2024-03-04T02:44:25.767Z,409.00
2024-03-04T02:45:25.810Z,410.00
2024-03-04T02:46:25.878Z,409.00
2024-03-04T02:47:25.792Z,407.00
2024-03-04T02:48:25.792Z,406.00
2024-03-04T02:49:25.847Z,408.00
2024-03-04T02:50:25.769Z,408.00
2024-03-04T02:51:25.794Z,409.00
2024-03-04T02:52:25.848Z,408.00
2024-03-04T02:53:25.828Z,406.00
2024-03-04T02:54:25.820Z,408.00
2024-03-04T02:55:25.834Z,409.00
2024-03-04T02:56:25.836Z,408.00
2024-03-04T02:57:25.857Z,409.00
2024-03-04T02:58:25.856Z,409.00
2024-03-04T02:59:25.867Z,411.00
2024-03-04T03:00:25.841Z,411.00
2024-03-04T03:01:25.928Z,411.00
2024-03-04T03:02:25.852Z,411.00
2024-03-04T03:03:25.840Z,410.00
2024-03-04T03:04:25.863Z,412.00
2024-03-04T03:05:25.832Z,413.00
2024-03-04T03:06:25.863Z,412.00
2024-03-04T03:07:25.920Z,415.00
2024-03-04T03:08:25.851Z,417.00
2024-03-04T03:09:25.884Z,416.00
2024-03-04T03:10:25.951Z,419.00
2024-03-04T03:11:25.920Z,419.00
2024-03-04T03:12:25.911Z,420.00
2024-03-04T03:13:25.939Z,419.00
2024-03-04T03:14:25.923Z,418.00
2024-03-04T03:15:25.945Z,416.00
2024-03-04T03:16:25.952Z,415.00
2024-03-04T03:17:25.915Z,415.00
2024-03-04T03:18:25.927Z,415.00
2024-03-04T03:19:25.989Z,415.00
2024-03-04T03:20:25.921Z,416.00
2024-03-04T03:21:25.908Z,416.00
2024-03-04T03:22:25.947Z,415.00
2024-03-04T03:23:25.952Z,414.00
2024-03-04T03:24:25.956Z,414.00
2024-03-04T03:25:25.980Z,414.00
2024-03-04T03:26:25.941Z,414.00
2024-03-04T03:27:25.947Z,415.00
2024-03-04T03:28:25.993Z,414.00
2024-03-04T03:29:25.935Z,416.00
2024-03-04T03:30:25.953Z,416.00
2024-03-04T03:31:25.997Z,414.00
2024-03-04T03:32:26.023Z,412.00
2024-03-04T03:33:25.964Z,412.00
2024-03-04T03:34:26.091Z,413.00
2024-03-04T03:35:26.020Z,413.00
2024-03-04T03:36:25.972Z,411.00
2024-03-04T03:37:25.974Z,410.00
2024-03-04T03:38:26.037Z,410.00
2024-03-04T03:39:25.980Z,409.00
2024-03-04T03:40:26.024Z,410.00
2024-03-04T03:41:25.993Z,410.00
2024-03-04T03:42:26.023Z,411.00
2024-03-04T03:43:26.043Z,412.00
2024-03-04T03:44:26.072Z,411.00
2024-03-04T03:45:26.023Z,410.00
2024-03-04T03:46:26.086Z,410.00
2024-03-04T03:47:26.116Z,412.00
2024-03-04T03:48:26.081Z,411.00
2024-03-04T03:49:26.072Z,412.00
2024-03-04T03:50:26.076Z,412.00
2024-03-04T03:51:26.076Z,413.00
2024-03-04T03:52:26.145Z,413.00
2024-03-04T03:53:26.063Z,414.00
2024-03-04T03:54:26.071Z,414.00
2024-03-04T03:55:26.104Z,415.00
2024-03-04T03:56:26.127Z,414.00
2024-03-04T03:57:27.943Z,417.00
2024-03-04T03:58:26.129Z,416.00
2024-03-04T03:59:26.124Z,415.00
2024-03-04T04:00:28.370Z,417.00
2024-03-04T04:01:26.214Z,419.00
2024-03-04T04:02:26.122Z,421.00
2024-03-04T04:03:26.139Z,423.00
2024-03-04T04:04:26.207Z,421.00
2024-03-04T04:05:26.154Z,420.00
2024-03-04T04:06:26.129Z,419.00
2024-03-04T04:07:26.192Z,417.00
2024-03-04T04:08:26.155Z,417.00
2024-03-04T04:09:26.135Z,416.00
2024-03-04T04:10:26.220Z,415.00
2024-03-04T04:11:26.191Z,415.00
2024-03-04T04:12:26.129Z,416.00
2024-03-04T04:13:26.201Z,415.00
2024-03-04T04:14:26.156Z,417.00
2024-03-04T04:15:29.567Z,415.00
2024-03-04T04:16:26.164Z,416.00
2024-03-04T04:17:26.163Z,417.00
2024-03-04T04:18:26.177Z,416.00
2024-03-04T04:19:26.188Z,417.00
2024-03-04T04:20:26.144Z,416.00
2024-03-04T04:21:26.218Z,416.00
2024-03-04T04:22:26.183Z,416.00
2024-03-04T04:23:26.125Z,417.00
2024-03-04T04:24:26.149Z,419.00
2024-03-04T04:25:26.207Z,419.00
2024-03-04T04:26:26.156Z,417.00
2024-03-04T04:27:26.123Z,418.00
2024-03-04T04:28:33.525Z,425.00
2024-03-04T04:29:33.385Z,424.00
2024-03-04T04:30:33.350Z,422.00
2024-03-04T04:31:40.588Z,427.00
2024-03-04T04:32:40.609Z,422.00
2024-03-04T04:33:40.668Z,423.00
2024-03-04T04:34:40.700Z,422.00
2024-03-04T04:35:40.618Z,422.00
2024-03-04T04:36:40.635Z,424.00
2024-03-04T04:37:40.688Z,423.00
2024-03-04T04:38:40.628Z,422.00
2024-03-04T04:39:40.601Z,423.00
2024-03-04T04:40:40.665Z,427.00
2024-03-04T04:41:40.643Z,428.00
2024-03-04T04:42:40.614Z,428.00
2024-03-04T04:43:40.646Z,429.00
2024-03-04T04:44:40.636Z,428.00
2024-03-04T04:45:40.659Z,427.00
2024-03-04T04:46:40.645Z,427.00
2024-03-04T04:47:40.655Z,426.00
2024-03-04T04:48:40.608Z,426.00
2024-03-04T04:49:40.692Z,427.00
2024-03-04T04:50:40.644Z,425.00
2024-03-04T04:51:40.602Z,425.00
2024-03-04T04:52:40.671Z,424.00
2024-03-04T04:53:40.612Z,423.00
2024-03-04T04:54:40.624Z,424.00
2024-03-04T04:55:40.653Z,421.00
2024-03-04T04:56:40.595Z,421.00
2024-03-04T04:57:40.642Z,421.00
2024-03-04T04:58:40.630Z,423.00
2024-03-04T04:59:40.627Z,422.00
2024-03-04T05:00:40.655Z,421.00
2024-03-04T05:01:40.709Z,418.00
2024-03-04T05:02:40.609Z,418.00
2024-03-04T05:04:50.702Z,421.00
2024-03-04T05:05:41.632Z,423.00
2024-03-04T05:06:40.684Z,425.00
2024-03-04T05:07:40.832Z,426.00
2024-03-04T05:08:40.638Z,426.00
2024-03-04T05:09:40.657Z,426.00
2024-03-04T05:10:40.840Z,425.00
2024-03-04T05:11:40.644Z,424.00
2024-03-04T05:12:40.609Z,421.00
2024-03-04T05:13:40.717Z,420.00
2024-03-04T05:14:40.665Z,420.00
2024-03-04T05:15:40.619Z,418.00
2024-03-04T05:16:40.649Z,417.00
2024-03-04T05:17:40.660Z,417.00
2024-03-04T05:18:40.636Z,416.00
2024-03-04T05:19:40.675Z,416.00
2024-03-04T05:20:50.087Z,417.00
2024-03-04T05:21:41.675Z,419.00
2024-03-04T05:22:40.705Z,421.00
2024-03-04T05:23:41.206Z,421.00
2024-03-04T05:24:40.685Z,424.00
2024-03-04T05:25:40.777Z,424.00
2024-03-04T05:26:40.648Z,424.00
2024-03-04T05:27:40.641Z,426.00
2024-03-04T05:28:40.666Z,426.00
2024-03-04T05:29:40.655Z,428.00
2024-03-04T05:30:40.702Z,429.00
2024-03-04T05:31:40.689Z,429.00
2024-03-04T05:32:40.659Z,429.00
2024-03-04T05:33:40.721Z,429.00
2024-03-04T05:34:40.746Z,426.00
2024-03-04T05:35:40.665Z,426.00
2024-03-04T05:36:40.706Z,424.00
2024-03-04T05:37:40.756Z,423.00
2024-03-04T05:38:40.698Z,424.00
2024-03-04T05:39:40.649Z,423.00
2024-03-04T05:40:40.740Z,422.00
2024-03-04T05:41:40.670Z,423.00
2024-03-04T05:42:40.845Z,422.00
2024-03-04T05:43:40.709Z,424.00
2024-03-04T05:44:40.800Z,423.00
2024-03-04T05:45:40.692Z,423.00
2024-03-04T05:46:40.746Z,423.00
2024-03-04T05:47:40.719Z,425.00
2024-03-04T05:48:40.684Z,427.00
2024-03-04T05:49:40.724Z,427.00
2024-03-04T05:50:40.741Z,423.00
2024-03-04T05:51:40.730Z,425.00
2024-03-04T05:52:40.901Z,427.00
2024-03-04T05:53:40.829Z,425.00
2024-03-04T05:54:40.821Z,426.00
2024-03-04T05:55:40.915Z,423.00
2024-03-04T05:56:40.876Z,424.00
2024-03-04T05:57:40.919Z,423.00
2024-03-04T05:58:41.012Z,421.00
2024-03-04T05:59:40.985Z,420.00
2024-03-04T06:00:41.323Z,418.00
2024-03-04T06:01:41.285Z,420.00
2024-03-04T06:02:41.088Z,424.00
2024-03-04T06:03:41.096Z,427.00
2024-03-04T06:04:41.181Z,429.00
2024-03-04T06:05:41.191Z,429.00
2024-03-04T06:06:41.223Z,428.00
2024-03-04T06:07:41.293Z,429.00
2024-03-04T06:08:41.263Z,430.00
2024-03-04T06:09:41.307Z,432.00
2024-03-04T06:10:41.345Z,433.00
2024-03-04T06:11:41.362Z,432.00
2024-03-04T06:12:41.328Z,431.00
2024-03-04T06:13:41.426Z,430.00
2024-03-04T06:14:41.400Z,428.00
2024-03-04T06:15:41.451Z,426.00
2024-03-04T06:16:41.485Z,425.00
2024-03-04T06:17:41.519Z,426.00
2024-03-04T06:18:41.512Z,425.00
2024-03-04T06:19:41.634Z,423.00
2024-03-04T06:20:41.564Z,423.00
2024-03-04T06:21:41.582Z,424.00
2024-03-04T06:22:41.682Z,424.00
2024-03-04T06:23:41.610Z,425.00
2024-03-04T06:24:41.640Z,422.00
2024-03-04T06:25:41.758Z,424.00
2024-03-04T06:26:41.690Z,426.00
2024-03-04T06:27:41.736Z,427.00
2024-03-04T06:28:41.754Z,429.00
2024-03-04T06:29:41.764Z,431.00
2024-03-04T06:30:41.816Z,428.00
2024-03-04T06:31:41.830Z,431.00
2024-03-04T06:32:41.907Z,431.00
2024-03-04T06:33:51.492Z,432.00
2024-03-04T06:34:42.951Z,432.00
2024-03-04T06:35:41.867Z,433.00
2024-03-04T06:36:41.873Z,434.00
2024-03-04T06:37:41.946Z,439.00
2024-03-04T06:38:41.891Z,473.00
2024-03-04T06:39:41.873Z,513.00
2024-03-04T06:40:41.942Z,533.00
2024-03-04T06:41:41.847Z,551.00
2024-03-04T06:42:41.882Z,586.00
2024-03-04T06:43:41.999Z,616.00
2024-03-04T06:44:41.869Z,648.00
2024-03-04T06:45:41.909Z,660.00
2024-03-04T06:46:41.886Z,662.00
2024-03-04T06:47:41.913Z,679.00
2024-03-04T06:48:41.875Z,709.00
2024-03-04T06:49:41.922Z,708.00
2024-03-04T06:50:41.903Z,730.00
2024-03-04T06:51:41.898Z,747.00
2024-03-04T06:52:41.971Z,790.00
2024-03-04T06:53:41.870Z,811.00
2024-03-04T06:54:41.878Z,826.00
2024-03-04T06:55:42.033Z,893.00
2024-03-04T06:56:41.992Z,893.00
2024-03-04T06:57:42.053Z,886.00
2024-03-04T06:58:42.145Z,887.00
2024-03-04T06:59:42.132Z,896.00
2024-03-04T07:00:44.052Z,921.00
2024-03-04T07:01:42.313Z,976.00
2024-03-04T07:02:42.269Z,981.00
2024-03-04T07:03:42.304Z,978.00
2024-03-04T07:04:42.444Z,989.00
2024-03-04T07:05:42.365Z,990.00
2024-03-04T07:06:42.361Z,995.00
2024-03-04T07:07:42.460Z,1013.00
2024-03-04T07:08:42.434Z,1025.00
2024-03-04T07:09:42.468Z,1092.00
2024-03-04T07:10:42.577Z,1101.00
2024-03-04T07:11:42.501Z,1096.00
2024-03-04T07:12:42.491Z,1088.00
2024-03-04T07:13:42.550Z,1160.00
2024-03-04T07:14:42.497Z,1149.00
2024-03-04T07:15:42.509Z,1147.00
2024-03-04T07:16:42.593Z,1150.00
2024-03-04T07:17:42.552Z,1155.00
2024-03-04T07:18:42.554Z,1161.00
2024-03-04T07:19:42.611Z,1172.00
2024-03-04T07:20:42.568Z,1205.00
2024-03-04T07:21:42.520Z,1203.00
2024-03-04T07:22:42.700Z,1213.00
2024-03-04T07:23:42.545Z,1283.00
2024-03-04T07:24:42.589Z,1295.00
2024-03-04T07:25:42.646Z,1279.00
2024-03-04T07:26:42.666Z,1262.00
2024-03-04T07:27:42.696Z,1252.00
2024-03-04T07:28:42.787Z,1247.00
2024-03-04T07:29:48.530Z,1246.00
2024-03-04T07:30:43.735Z,1247.00
2024-03-04T07:31:42.788Z,1249.00
2024-03-04T07:32:42.830Z,1269.00
2024-03-04T07:33:42.738Z,1283.00
2024-03-04T07:34:42.794Z,1279.00
2024-03-04T07:35:42.744Z,1285.00
2024-03-04T07:36:42.731Z,1335.00
2024-03-04T07:37:42.840Z,1265.00
2024-03-04T07:38:42.792Z,1273.00
2024-03-04T07:39:42.841Z,1349.00
2024-03-04T07:40:42.942Z,1320.00
2024-03-04T07:41:43.051Z,1302.00
2024-03-04T07:42:43.043Z,1307.00
2024-03-04T07:43:43.155Z,1299.00
2024-03-04T07:44:43.159Z,1272.00
2024-03-04T07:45:43.264Z,1251.00
2024-03-04T07:46:43.422Z,1237.00
2024-03-04T07:47:43.412Z,1213.00
2024-03-04T07:48:43.466Z,1212.00
2024-03-04T07:49:43.494Z,1209.00
2024-03-04T07:50:43.585Z,1203.00
2024-03-04T07:51:43.652Z,1247.00
2024-03-04T07:52:43.804Z,1356.00
2024-03-04T07:53:44.780Z,1330.00
2024-03-04T07:54:43.859Z,1313.00
2024-03-04T07:55:43.925Z,1307.00
2024-03-04T07:56:43.985Z,1358.00
2024-03-04T07:57:44.060Z,1323.00
2024-03-04T07:58:44.105Z,1247.00
2024-03-04T07:59:44.121Z,1255.00
2024-03-04T08:00:44.188Z,1257.00
2024-03-04T08:01:44.240Z,1261.00
2024-03-04T08:02:44.359Z,1263.00
2024-03-04T08:03:44.425Z,1251.00
2024-03-04T08:04:44.494Z,1230.00
2024-03-04T08:05:44.429Z,1226.00
2024-03-04T08:06:44.463Z,1222.00
2024-03-04T08:07:44.529Z,1215.00
2024-03-04T08:08:44.550Z,1073.00
2024-03-04T08:09:44.617Z,1174.00
2024-03-04T08:10:44.804Z,1097.00
2024-03-04T08:11:44.766Z,1103.00
2024-03-04T08:12:44.763Z,1094.00
2024-03-04T08:13:44.893Z,1098.00
2024-03-04T08:14:44.885Z,1097.00
2024-03-04T08:15:44.939Z,1259.00
2024-03-04T08:16:45.016Z,1072.00
2024-03-04T08:17:54.267Z,1006.00
2024-03-04T08:18:46.114Z,1074.00
2024-03-04T08:19:45.110Z,1142.00
2024-03-04T08:20:45.051Z,1060.00
2024-03-04T08:21:45.052Z,1307.00
2024-03-04T08:22:45.146Z,1076.00
2024-03-04T08:23:45.047Z,1061.00
2024-03-04T08:24:45.062Z,1059.00
2024-03-04T08:25:45.199Z,1054.00
2024-03-04T08:26:45.029Z,1039.00
2024-03-04T08:27:45.094Z,1081.00
2024-03-04T08:28:45.081Z,1051.00
2024-03-04T08:29:45.049Z,1033.00
2024-03-04T08:30:45.095Z,1027.00
2024-03-04T08:31:45.183Z,1028.00
2024-03-04T08:32:45.205Z,1031.00
2024-03-04T08:33:45.226Z,1090.00
2024-03-04T08:34:46.774Z,1055.00
2024-03-04T08:35:45.293Z,1009.00
2024-03-04T08:36:45.339Z,1020.00
2024-03-04T08:37:45.586Z,1026.00
2024-03-04T08:38:45.416Z,1023.00
2024-03-04T08:39:45.469Z,1021.00
2024-03-04T08:40:45.501Z,1023.00
2024-03-04T08:41:45.554Z,968.00
2024-03-04T08:42:45.587Z,819.00
2024-03-04T08:43:45.680Z,793.00
2024-03-04T08:44:45.623Z,780.00
2024-03-04T08:45:45.641Z,785.00
2024-03-04T08:46:45.821Z,895.00
2024-03-04T08:47:45.698Z,884.00
2024-03-04T08:48:45.675Z,949.00
2024-03-04T08:49:45.823Z,948.00
2024-03-04T08:50:45.673Z,940.00
2024-03-04T08:51:45.750Z,932.00
2024-03-04T08:52:45.834Z,960.00
2024-03-04T08:53:45.834Z,980.00
2024-03-04T08:54:45.905Z,968.00
2024-03-04T08:55:46.058Z,956.00
2024-03-04T08:56:46.026Z,875.00
2024-03-04T08:57:46.106Z,896.00
2024-03-04T08:58:46.240Z,864.00
2024-03-04T08:59:46.204Z,890.00
2024-03-04T09:00:46.311Z,922.00
2024-03-04T09:01:46.357Z,923.00
2024-03-04T09:02:46.401Z,927.00
2024-03-04T09:03:46.552Z,931.00
2024-03-04T09:04:46.731Z,1005.00
2024-03-04T09:05:46.593Z,1010.00
2024-03-04T09:06:46.690Z,1008.00
2024-03-04T09:07:46.739Z,1086.00
2024-03-04T09:08:46.795Z,1239.00
2024-03-04T09:09:46.893Z,1069.00
2024-03-04T09:10:47.004Z,951.00
2024-03-04T09:11:47.084Z,1022.00
2024-03-04T09:12:47.075Z,1041.00
2024-03-04T09:13:47.189Z,989.00
2024-03-04T09:14:47.191Z,1081.00
2024-03-04T09:15:47.281Z,1052.00
2024-03-04T09:16:47.341Z,1038.00
2024-03-04T09:17:47.392Z,1044.00
2024-03-04T09:18:47.466Z,1037.00
2024-03-04T09:19:47.523Z,966.00
2024-03-04T09:20:47.580Z,951.00
2024-03-04T09:21:47.612Z,981.00
2024-03-04T09:22:47.750Z,998.00
2024-03-04T09:23:47.764Z,1008.00
2024-03-04T09:24:47.828Z,1020.00
2024-03-04T09:25:47.928Z,1056.00
2024-03-04T09:26:47.939Z,1060.00
2024-03-04T09:27:47.967Z,1009.00
2024-03-04T09:28:48.103Z,1026.00
2024-03-04T09:29:48.146Z,1049.00
2024-03-04T09:30:48.183Z,1037.00
2024-03-04T09:31:48.354Z,1037.00
2024-03-04T09:32:48.350Z,1041.00
2024-03-04T09:33:48.393Z,1048.00
2024-03-04T09:34:48.490Z,1052.00
2024-03-04T09:35:48.510Z,1052.00
2024-03-04T09:36:48.566Z,934.00
2024-03-04T09:37:48.659Z,931.00
2024-03-04T09:38:48.721Z,834.00
2024-03-04T09:39:48.714Z,830.00
2024-03-04T09:40:48.823Z,796.00
2024-03-04T09:41:48.771Z,793.00
2024-03-04T09:42:48.838Z,789.00
2024-03-04T09:43:48.866Z,800.00
2024-03-04T09:44:48.884Z,848.00
2024-03-04T09:45:48.935Z,742.00
2024-03-04T09:46:49.053Z,723.00
2024-03-04T09:47:49.069Z,727.00
2024-03-04T09:48:49.110Z,731.00
2024-03-04T09:49:49.168Z,792.00
2024-03-04T09:50:49.199Z,781.00
2024-03-04T09:51:49.243Z,790.00
2024-03-04T09:52:49.325Z,785.00
2024-03-04T09:53:49.304Z,787.00
2024-03-04T09:54:49.400Z,736.00
2024-03-04T09:55:49.517Z,837.00
2024-03-04T09:56:49.473Z,892.00
2024-03-04T09:57:49.519Z,851.00
2024-03-04T09:58:49.634Z,844.00
2024-03-04T09:59:49.572Z,850.00
2024-03-04T10:00:49.638Z,870.00
2024-03-04T10:01:49.658Z,886.00
2024-03-04T10:02:49.600Z,901.00
2024-03-04T10:03:49.629Z,932.00
2024-03-04T10:04:49.778Z,934.00
2024-03-04T10:05:49.738Z,974.00
2024-03-04T10:06:49.807Z,959.00
2024-03-04T10:07:49.902Z,958.00
2024-03-04T10:08:49.892Z,962.00
2024-03-04T10:09:50.026Z,907.00
2024-03-04T10:10:50.399Z,886.00
2024-03-04T10:11:50.152Z,878.00
2024-03-04T10:12:50.165Z,855.00
2024-03-04T10:13:50.249Z,851.00
2024-03-04T10:14:50.249Z,840.00
2024-03-04T10:15:50.263Z,821.00
2024-03-04T10:16:50.297Z,805.00
2024-03-04T10:17:50.354Z,794.00
2024-03-04T10:18:50.377Z,792.00
2024-03-04T10:19:50.489Z,835.00
2024-03-04T10:20:50.521Z,817.00
2024-03-04T10:21:50.570Z,835.00
2024-03-04T10:22:50.588Z,807.00
2024-03-04T10:23:50.623Z,788.00
2024-03-04T10:24:50.694Z,778.00
2024-03-04T10:25:50.894Z,781.00
2024-03-04T10:26:50.847Z,815.00
2024-03-04T10:27:50.919Z,812.00
2024-03-04T10:28:51.032Z,821.00
2024-03-04T10:29:51.037Z,816.00
2024-03-04T10:30:51.121Z,809.00
2024-03-04T10:31:51.263Z,796.00
2024-03-04T10:32:51.330Z,785.00
2024-03-04T10:33:51.307Z,771.00
2024-03-04T10:34:51.512Z,825.00
2024-03-04T10:35:53.569Z,836.00
2024-03-04T10:36:51.537Z,817.00
2024-03-04T10:37:51.605Z,810.00
2024-03-04T10:38:51.645Z,840.00
2024-03-04T10:39:51.735Z,870.00
2024-03-04T10:40:51.841Z,862.00
2024-03-04T10:41:51.835Z,857.00
2024-03-04T10:42:51.894Z,844.00
2024-03-04T10:43:51.993Z,825.00
2024-03-04T10:44:52.029Z,765.00
2024-03-04T10:45:52.038Z,753.00
2024-03-04T10:46:52.091Z,749.00
2024-03-04T10:47:52.173Z,736.00
2024-03-04T10:48:52.085Z,719.00
2024-03-04T10:49:52.098Z,719.00
2024-03-04T10:50:52.101Z,726.00
2024-03-04T10:52:03.614Z,725.00
2024-03-04T10:52:53.137Z,715.00
2024-03-04T10:53:52.081Z,708.00
2024-03-04T10:54:52.155Z,705.00
2024-03-04T10:55:52.284Z,707.00
2024-03-04T10:56:52.093Z,717.00
2024-03-04T10:57:52.080Z,795.00
2024-03-04T10:58:52.141Z,695.00
2024-03-04T10:59:52.117Z,689.00
2024-03-04T11:00:52.281Z,696.00
2024-03-04T11:01:52.402Z,698.00
2024-03-04T11:02:58.917Z,694.00
2024-03-04T11:03:52.333Z,746.00
2024-03-04T11:04:52.374Z,732.00
2024-03-04T11:05:52.331Z,701.00
2024-03-04T11:06:52.298Z,688.00
2024-03-04T11:07:52.417Z,709.00
2024-03-04T11:08:52.328Z,697.00
2024-03-04T11:09:52.323Z,749.00
2024-03-04T11:10:52.481Z,768.00
2024-03-04T11:11:52.367Z,721.00
2024-03-04T11:12:52.315Z,701.00
2024-03-04T11:13:52.350Z,743.00
2024-03-04T11:14:52.323Z,703.00
2024-03-04T11:15:52.345Z,761.00
2024-03-04T11:16:52.379Z,761.00
2024-03-04T11:17:52.369Z,775.00
2024-03-04T11:18:52.325Z,777.00
2024-03-04T11:19:52.439Z,781.00
2024-03-04T11:20:52.352Z,720.00
2024-03-04T11:21:52.345Z,793.00
2024-03-04T11:22:52.464Z,804.00
2024-03-04T11:23:52.351Z,812.00
2024-03-04T11:24:52.362Z,812.00
2024-03-04T11:25:52.404Z,813.00
2024-03-04T11:26:52.347Z,811.00
2024-03-04T11:27:52.392Z,807.00
2024-03-04T11:28:52.432Z,737.00
2024-03-04T11:29:52.359Z,750.00
2024-03-04T11:30:52.382Z,798.00
2024-03-04T11:31:52.366Z,801.00
2024-03-04T11:32:52.382Z,806.00
2024-03-04T11:33:52.360Z,851.00
2024-03-04T11:34:52.383Z,833.00
2024-03-04T11:35:52.341Z,837.00
2024-03-04T11:36:52.376Z,846.00
2024-03-04T11:37:52.810Z,824.00
2024-03-04T11:38:52.445Z,831.00
2024-03-04T11:39:54.521Z,834.00
2024-03-04T11:40:52.399Z,829.00
2024-03-04T11:41:52.371Z,782.00
2024-03-04T11:42:52.370Z,769.00
2024-03-04T11:43:52.445Z,766.00
2024-03-04T11:44:52.384Z,760.00
2024-03-04T11:45:52.388Z,828.00
2024-03-04T11:46:52.532Z,798.00
2024-03-04T11:47:52.412Z,777.00
2024-03-04T11:48:52.455Z,777.00
2024-03-04T11:49:52.518Z,788.00
2024-03-04T11:50:52.420Z,856.00
2024-03-04T11:51:52.420Z,942.00
2024-03-04T11:52:52.427Z,872.00
2024-03-04T11:53:52.407Z,848.00
2024-03-04T11:54:52.373Z,1024.00
2024-03-04T11:55:52.436Z,875.00
2024-03-04T11:56:52.412Z,852.00
2024-03-04T11:57:52.426Z,854.00
2024-03-04T11:58:52.401Z,889.00
2024-03-04T11:59:52.414Z,939.00
2024-03-04T12:00:54.330Z,956.00
2024-03-04T12:01:53.324Z,957.00
2024-03-04T12:02:52.400Z,972.00
2024-03-04T12:03:54.216Z,976.00
2024-03-04T12:04:52.438Z,978.00
2024-03-04T12:05:52.432Z,1010.00
2024-03-04T12:06:52.495Z,994.00
2024-03-04T12:07:52.471Z,990.00
2024-03-04T12:09:08.354Z,986.00
2024-03-04T12:10:04.699Z,980.00
2024-03-04T12:10:53.604Z,975.00
2024-03-04T12:11:52.448Z,977.00
2024-03-04T12:12:52.460Z,994.00
2024-03-04T12:13:52.423Z,1004.00
2024-03-04T12:14:52.434Z,1093.00
2024-03-04T12:15:52.423Z,1057.00
2024-03-04T12:16:52.447Z,1044.00
2024-03-04T12:17:52.489Z,1036.00
2024-03-04T12:18:52.429Z,1045.00
2024-03-04T12:19:52.420Z,1055.00
2024-03-04T12:20:52.504Z,1156.00
2024-03-04T12:21:52.421Z,1100.00
2024-03-04T12:22:52.489Z,1132.00
2024-03-04T12:23:52.388Z,1128.00
2024-03-04T12:24:52.462Z,1177.00
2024-03-04T12:25:52.572Z,1135.00